Time;durP1;ratioP1;P1;durP2;ratioP2;P2;SDS_P1;SDS_P2;PMS_P1;PMS_P2;Temp;Humidity;BMP_temperature;BMP_pressure;BME280_temperature;BME280_humidity;BME280_pressure;Samples;Min_cycle;Max_cycle;Signal;HPM_P1;HPM_P2
2022/04/02 00:00:19;;;;;;;2.97;0.55;;;;;;;2.48;67.22;101810.06;5094610;27;114533;-34
2022/04/02 00:02:45;;;;;;;0.15;0.15;;;;;;;2.51;66.17;101818.06;5094970;27;107236;-34
2022/04/02 00:05:10;;;;;;;0.52;0.43;;;;;;;2.43;66.88;101802.13;5095306;27;96578;-34
2022/04/02 00:07:36;;;;;;;0.55;0.30;;;;;;;2.41;66.52;101790.56;5076630;27;96800;-34
2022/04/02 00:10:03;;;;;;;0.52;0.50;;;;;;;2.52;66.18;101803.78;5075793;27;100610;-34
2022/04/02 00:12:29;;;;;;;0.20;0.17;;;;;;;2.40;67.56;101791.47;5095400;27;99538;-34
2022/04/02 00:14:54;;;;;;;1.10;0.57;;;;;;;2.43;66.83;101796.78;5094972;27;96631;-34
2022/04/02 00:17:20;;;;;;;0.00;0.00;;;;;;;2.44;67.04;101790.53;5095354;27;96712;-34
2022/04/02 00:19:45;;;;;;;1.50;0.55;;;;;;;2.43;67.00;101787.84;5094597;27;98763;-34
2022/04/02 00:22:11;;;;;;;0.40;0.40;;;;;;;2.45;66.78;101791.41;5094859;27;99320;-34
2022/04/02 00:24:36;;;;;;;0.32;0.28;;;;;;;2.40;66.68;101783.44;5094896;27;96440;-34
2022/04/02 00:27:01;;;;;;;0.30;0.30;;;;;;;2.45;66.30;101788.72;5094107;27;121766;-34
2022/04/02 00:29:27;;;;;;;1.88;0.32;;;;;;;2.44;66.86;101795.00;5094448;27;99053;-34
2022/04/02 00:31:53;;;;;;;0.95;0.47;;;;;;;2.41;67.97;101798.59;5094779;27;99202;-34
2022/04/02 00:34:18;;;;;;;0.28;0.20;;;;;;;2.41;67.28;101795.00;5076337;27;96481;-34
2022/04/02 00:36:44;;;;;;;0.30;0.25;;;;;;;2.38;67.12;101787.91;5095066;27;96670;-34
2022/04/02 00:39:10;;;;;;;0.30;0.30;;;;;;;2.41;67.41;101777.19;5076037;27;100842;-34
2022/04/02 00:41:36;;;;;;;0.30;0.30;;;;;;;2.40;66.89;101791.47;5075916;27;100972;-34
2022/04/02 00:44:16;;;;;;;0.45;0.45;;;;;;;2.37;68.16;101786.16;5094189;27;96588;-34
2022/04/02 00:46:43;;;;;;;0.35;0.20;;;;;;;2.34;67.16;101786.22;5076101;27;96884;-34
2022/04/02 00:49:11;;;;;;;2.03;0.32;;;;;;;2.33;68.11;101787.97;5094384;27;97972;-35
2022/04/02 00:51:41;;;;;;;0.65;0.52;;;;;;;2.37;67.50;101782.59;5076077;27;101122;-34
2022/04/02 00:54:08;;;;;;;0.45;0.43;;;;;;;2.38;67.29;101779.91;5076045;27;96629;-34
2022/04/02 00:56:35;;;;;;;0.45;0.43;;;;;;;2.42;67.43;101789.66;5075604;27;96795;-35
2022/04/02 00:59:00;;;;;;;3.65;0.80;;;;;;;2.39;67.64;101773.66;5075779;27;100844;-34
2022/04/02 01:01:26;;;;;;;1.27;0.63;;;;;;;2.37;67.95;101778.13;5094977;27;97918;-35
2022/04/02 01:03:51;;;;;;;1.45;0.40;;;;;;;2.43;67.77;101790.53;5093406;27;118784;-35
2022/04/02 01:06:17;;;;;;;0.60;0.35;;;;;;;2.40;67.91;101782.56;5094576;27;96788;-34
2022/04/02 01:08:43;;;;;;;0.65;0.45;;;;;;;2.46;68.30;101796.75;5075075;27;100984;-34
2022/04/02 01:11:08;;;;;;;0.30;0.30;;;;;;;2.46;68.19;101796.75;5092333;27;128252;-34
2022/04/02 01:13:34;;;;;;;0.10;0.00;;;;;;;2.40;69.25;101788.78;5094312;27;96599;-34
2022/04/02 01:16:00;;;;;;;0.20;0.17;;;;;;;2.46;69.17;101795.88;5075522;27;96850;-34
2022/04/02 01:18:25;;;;;;;0.10;0.10;;;;;;;2.51;68.86;101794.88;5093868;27;99424;-34
2022/04/02 01:20:52;;;;;;;2.92;0.50;;;;;;;2.51;69.07;101800.25;5092876;27;105534;-34
2022/04/02 01:23:17;;;;;;;0.10;0.08;;;;;;;2.48;68.59;101800.28;5093909;27;96719;-34
2022/04/02 01:25:43;;;;;;;0.15;0.15;;;;;;;2.48;67.64;101783.31;5093633;27;118749;-35
2022/04/02 01:28:08;;;;;;;0.50;0.50;;;;;;;2.52;68.36;101796.66;5094009;27;97819;-34
2022/04/02 01:30:33;;;;;;;0.38;0.38;;;;;;;2.56;68.63;101802.84;5093621;27;99300;-34
2022/04/02 01:32:59;;;;;;;0.60;0.60;;;;;;;2.54;68.48;101799.31;5092926;27;115036;-34
2022/04/02 01:35:25;;;;;;;0.88;0.55;;;;;;;2.60;68.20;101795.66;5075135;27;96744;-34
2022/04/02 01:37:51;;;;;;;0.63;0.60;;;;;;;2.59;68.16;101793.91;5075185;27;100721;-34
2022/04/02 01:40:18;;;;;;;0.20;0.20;;;;;;;2.51;68.19;101792.22;5075109;27;100805;-34
2022/04/02 01:42:44;;;;;;;1.08;0.25;;;;;;;2.60;68.39;101803.69;5075265;27;96594;-35
2022/04/02 01:45:10;;;;;;;0.55;0.50;;;;;;;2.54;68.32;101796.63;5075265;27;96816;-34
2022/04/02 01:47:35;;;;;;;3.92;0.70;;;;;;;2.64;68.02;101810.75;5075003;27;100836;-34
2022/04/02 01:50:00;;;;;;;0.13;0.10;;;;;;;2.64;67.90;101805.41;5093651;27;99240;-34
2022/04/02 01:52:26;;;;;;;0.93;0.70;;;;;;;2.66;68.33;101803.63;5093003;27;119606;-34
2022/04/02 01:54:52;;;;;;;0.10;0.10;;;;;;;2.61;68.06;101792.09;5093286;27;96803;-35
2022/04/02 01:57:17;;;;;;;0.88;0.65;;;;;;;2.63;68.90;101798.31;5093122;27;97846;-34
2022/04/02 01:59:44;;;;;;;0.65;0.55;;;;;;;2.54;68.26;101794.84;5093383;27;98617;-34
2022/04/02 02:02:10;;;;;;;0.55;0.10;;;;;;;2.58;68.04;101808.19;5074929;27;96566;-34
2022/04/02 02:04:36;;;;;;;0.40;0.32;;;;;;;2.57;67.79;101803.72;5074707;27;96542;-34
2022/04/02 02:07:02;;;;;;;0.35;0.15;;;;;;;2.58;67.50;101810.88;5093431;27;97894;-34
2022/04/02 02:09:28;;;;;;;0.25;0.25;;;;;;;2.51;67.97;101812.72;5093085;27;98018;-34
2022/04/02 02:11:53;;;;;;;0.52;0.32;;;;;;;2.47;67.32;101802.97;5093366;27;96567;-34
2022/04/02 02:14:18;;;;;;;0.75;0.70;;;;;;;2.43;67.82;101798.56;5093006;27;121732;-34
2022/04/02 02:16:44;;;;;;;0.35;0.25;;;;;;;2.42;67.75;101796.78;5092978;27;110309;-34
2022/04/02 02:19:09;;;;;;;0.43;0.32;;;;;;;2.41;67.57;101798.59;5093286;27;97288;-34
2022/04/02 02:21:34;;;;;;;0.75;0.60;;;;;;;2.43;67.83;101806.56;5092572;27;96469;-34
2022/04/02 02:24:00;;;;;;;0.30;0.30;;;;;;;2.42;68.08;101799.47;5093222;27;96800;-34
2022/04/02 02:26:26;;;;;;;1.23;0.57;;;;;;;2.43;68.84;101812.84;5092988;27;100049;-34
2022/04/02 02:28:51;;;;;;;0.93;0.80;;;;;;;2.42;68.33;101808.38;5093151;27;97896;-34
2022/04/02 02:31:16;;;;;;;1.67;0.68;;;;;;;2.44;68.62;101809.25;5092536;27;115510;-34
2022/04/02 02:36:25;;;;;;;0.77;0.77;;;;;;;2.38;68.42;101819.13;5096845;27;97083;-35
2022/04/02 02:38:51;;;;;;;1.02;0.47;;;;;;;2.32;69.07;101812.94;5096880;27;97507;-34
2022/04/02 02:41:17;;;;;;;0.52;0.22;;;;;;;2.29;69.74;101807.66;5078255;27;96660;-34
2022/04/02 02:43:42;;;;;;;0.17;0.13;;;;;;;2.34;69.12;101826.31;5078094;27;96751;-34
2022/04/02 02:46:08;;;;;;;0.10;0.10;;;;;;;2.29;69.15;101815.66;5095889;27;99402;-34
2022/04/02 02:48:34;;;;;;;1.20;1.10;;;;;;;2.32;69.45;101826.31;5096380;27;98279;-34
2022/04/02 02:51:00;;;;;;;1.17;0.20;;;;;;;2.29;69.60;101826.34;5077650;27;96853;-35
2022/04/02 02:53:25;;;;;;;0.10;0.10;;;;;;;2.27;69.65;101825.47;5096416;27;96775;-34
2022/04/02 02:55:50;;;;;;;0.70;0.57;;;;;;;2.24;69.90;101822.84;5095489;27;127806;-34
2022/04/02 02:58:16;;;;;;;0.88;0.47;;;;;;;2.30;69.92;101830.78;5096147;27;99084;-34
2022/04/02 03:00:42;;;;;;;2.10;0.52;;;;;;;2.31;69.38;101834.34;5096292;27;96491;-34
2022/04/02 03:03:07;;;;;;;0.20;0.20;;;;;;;2.23;69.62;101828.22;5096711;27;96827;-34
2022/04/02 03:05:32;;;;;;;0.68;0.47;;;;;;;2.21;70.19;101827.34;5095416;27;117698;-34
2022/04/02 03:07:58;;;;;;;0.30;0.30;;;;;;;2.16;70.75;101826.50;5095631;27;112989;-34
2022/04/02 03:10:26;;;;;;;0.50;0.22;;;;;;;2.19;70.17;101822.00;5095283;27;96464;-34
2022/04/02 03:12:53;;;;;;;0.35;0.28;;;;;;;2.21;69.87;101840.69;5096270;27;96683;-34
2022/04/02 03:15:19;;;;;;;0.20;0.20;;;;;;;2.15;69.88;101827.41;5077370;27;101113;-34
2022/04/02 03:17:45;;;;;;;1.35;0.57;;;;;;;2.10;70.49;101820.31;5077209;27;100951;-34
2022/04/02 03:20:12;;;;;;;0.40;0.40;;;;;;;2.11;70.51;101827.44;5077454;27;96584;-34
2022/04/02 03:22:40;;;;;;;0.25;0.22;;;;;;;2.06;70.70;101817.69;5077456;27;96845;-34
2022/04/02 03:25:10;;;;;;;0.40;0.40;;;;;;;2.10;70.79;101839.03;5077304;27;100766;-34
2022/04/02 03:27:36;;;;;;;0.52;0.40;;;;;;;2.01;71.11;101820.44;5060530;27;100934;-34
2022/04/02 03:30:04;;;;;;;1.15;0.60;;;;;;;2.03;70.37;101825.75;5077228;27;96555;-34
2022/04/02 03:32:29;;;;;;;0.30;0.17;;;;;;;2.03;70.60;101834.66;5095871;27;96818;-34
2022/04/02 03:34:55;;;;;;;0.08;0.08;;;;;;;2.05;69.96;101830.19;5095069;27;99193;-34
2022/04/02 03:37:20;;;;;;;0.00;0.00;;;;;;;2.00;71.21;101833.78;5095893;27;97236;-34
2022/04/02 03:39:45;;;;;;;0.43;0.32;;;;;;;1.93;70.85;101822.28;5095978;27;96593;-34
2022/04/02 03:42:11;;;;;;;1.77;0.65;;;;;;;2.01;70.93;101835.56;5095885;27;96685;-34
2022/04/02 03:44:36;;;;;;;0.50;0.43;;;;;;;1.92;70.83;101826.72;5095179;27;96808;-34
2022/04/02 03:47:08;;;;;;;2.03;0.90;;;;;;;1.95;69.90;101835.63;5094910;27;115486;-34
2022/04/02 03:49:34;;;;;;;;;;;;;;;2.00;70.68;101842.72;5077178;27;96704;-35
2022/04/02 03:51:59;;;;;;;0.10;0.10;;;;;;;1.98;70.43;101843.59;5096291;27;96932;-34
2022/04/02 03:54:24;;;;;;;0.50;0.47;;;;;;;1.87;71.24;101827.69;5094587;27;124038;-34
2022/04/02 03:56:50;;;;;;;0.43;0.30;;;;;;;1.88;70.04;101835.72;5094447;27;117617;-35
2022/04/02 03:59:15;;;;;;;0.20;0.20;;;;;;;1.86;71.00;101839.25;5094143;27;121501;-34
2022/04/02 04:01:49;;;;;;;1.33;0.95;;;;;;;1.95;70.32;101849.84;5095167;27;108968;-34
2022/04/02 04:04:21;;;;;;;0.00;0.00;;;;;;;1.88;70.85;101841.03;5094843;27;99158;-34
2022/04/02 04:06:47;;;;;;;0.63;0.57;;;;;;;1.85;71.08;101841.06;5094265;27;126826;-34
2022/04/02 04:09:12;;;;;;;0.30;0.25;;;;;;;1.79;71.68;101832.22;5095378;27;96443;-34
2022/04/02 04:11:38;;;;;;;0.60;0.50;;;;;;;1.89;71.47;101850.81;5094927;27;96771;-34
2022/04/02 04:14:03;;;;;;;0.47;0.28;;;;;;;1.90;71.72;101851.69;5076333;27;100905;-34
2022/04/02 04:16:29;;;;;;;0.28;0.15;;;;;;;1.92;71.94;101855.25;5095280;27;98770;-34
2022/04/02 04:18:54;;;;;;;0.98;0.35;;;;;;;1.91;71.69;101859.72;5094332;27;122306;-34
2022/04/02 04:21:19;;;;;;;0.50;0.43;;;;;;;1.84;71.19;101849.97;5095103;27;96756;-34
2022/04/02 04:23:45;;;;;;;0.30;0.30;;;;;;;1.90;71.83;101857.03;5093619;27;124710;-34
2022/04/02 04:26:11;;;;;;;1.02;0.77;;;;;;;1.80;71.62;101861.59;5095034;27;97272;-34
2022/04/02 04:28:36;;;;;;;0.77;0.52;;;;;;;1.87;71.18;101868.66;5095234;27;96436;-34
2022/04/02 04:31:02;;;;;;;0.60;0.38;;;;;;;1.88;71.88;101875.78;5095093;27;96695;-34
2022/04/02 04:33:28;;;;;;;0.32;0.15;;;;;;;1.93;71.60;101878.38;5094620;27;99162;-34
2022/04/02 04:35:53;;;;;;;1.85;0.40;;;;;;;1.85;71.57;101869.56;5094832;27;97886;-34
2022/04/02 04:38:18;;;;;;;1.50;0.60;;;;;;;1.87;71.69;101870.44;5095078;27;96438;-34
2022/04/02 04:40:43;;;;;;;0.28;0.28;;;;;;;1.84;72.33;101870.47;5094200;27;121846;-34
2022/04/02 04:43:09;;;;;;;0.32;0.25;;;;;;;1.87;72.51;101883.78;5093684;27;126485;-34
2022/04/02 04:45:34;;;;;;;1.77;1.13;;;;;;;1.80;71.44;101872.25;5094400;27;111364;-35
2022/04/02 04:47:59;;;;;;;0.30;0.20;;;;;;;1.83;72.44;101887.38;5092929;27;122284;-34
2022/04/02 04:50:26;;;;;;;0.60;0.57;;;;;;;1.77;71.45;101879.44;5075357;27;112109;-34
2022/04/02 04:52:52;;;;;;;0.52;0.20;;;;;;;1.86;72.00;101887.34;5075834;27;100910;-34
2022/04/02 04:55:17;;;;;;;0.30;0.20;;;;;;;1.83;72.08;101879.38;5092298;27;120195;-34
2022/04/02 04:57:42;;;;;;;2.20;1.17;;;;;;;1.81;72.65;101886.50;5094406;27;96483;-34
2022/04/02 05:00:08;;;;;;;0.10;0.10;;;;;;;1.87;72.36;101891.81;5094066;27;108051;-34
2022/04/02 05:02:35;;;;;;;1.08;0.43;;;;;;;1.85;71.69;101883.78;5094035;27;99079;-34
2022/04/02 05:05:01;;;;;;;0.85;0.45;;;;;;;1.87;71.94;101884.66;5094345;27;99367;-34
2022/04/02 05:07:28;;;;;;;1.77;0.28;;;;;;;1.87;71.69;101884.66;5094574;27;96568;-34
2022/04/02 05:09:53;;;;;;;1.05;0.45;;;;;;;1.92;71.44;101900.66;5075444;27;96820;-33
2022/04/02 05:12:35;;;;;;;0.47;0.47;;;;;;;1.90;71.50;101907.78;5075073;27;100674;-34
2022/04/02 05:15:01;;;;;;;1.25;0.17;;;;;;;1.91;72.27;101913.13;5075431;27;100819;-34
2022/04/02 05:17:27;;;;;;;0.73;0.57;;;;;;;1.85;72.28;101917.63;5094147;27;96523;-34
2022/04/02 05:19:52;;;;;;;0.20;0.20;;;;;;;1.82;71.44;101913.22;5075569;27;96829;-34
2022/04/02 05:22:18;;;;;;;0.57;0.40;;;;;;;1.81;72.62;101919.47;5075437;27;100509;-34
2022/04/02 05:24:43;;;;;;;3.25;1.42;;;;;;;1.86;71.75;101922.06;5093875;27;106288;-34
2022/04/02 05:27:09;;;;;;;2.53;0.55;;;;;;;1.78;71.39;101914.13;5093913;27;96600;-34
2022/04/02 05:29:35;;;;;;;0.30;0.20;;;;;;;1.81;71.82;101910.53;5094406;27;96575;-34
2022/04/02 05:32:00;;;;;;;0.25;0.25;;;;;;;1.82;71.60;101917.69;5094363;27;97436;-34
2022/04/02 05:34:25;;;;;;;1.52;0.82;;;;;;;1.87;71.94;101931.88;5092726;27;127755;-34
2022/04/02 05:36:50;;;;;;;0.32;0.32;;;;;;;1.77;71.78;101917.72;5092371;27;122866;-34
2022/04/02 05:39:16;;;;;;;0.45;0.32;;;;;;;1.89;71.77;101940.78;5093714;27;99721;-34
2022/04/02 05:41:41;;;;;;;0.90;0.55;;;;;;;1.86;71.95;101930.09;5092765;27;127155;-34
2022/04/02 05:44:07;;;;;;;0.28;0.28;;;;;;;1.82;71.45;101926.56;5092636;27;126111;-34
2022/04/02 05:46:33;;;;;;;0.32;0.32;;;;;;;1.89;71.38;101938.97;5094029;27;96645;-34
2022/04/02 05:48:58;;;;;;;0.70;0.63;;;;;;;1.87;71.59;101938.09;5075242;27;96956;-34
2022/04/02 05:51:23;;;;;;;2.83;1.35;;;;;;;1.87;71.14;101935.44;5092303;27;125263;-34
2022/04/02 05:53:48;;;;;;;0.52;0.52;;;;;;;1.92;71.21;101940.72;5092897;27;127256;-34
2022/04/02 05:56:14;;;;;;;0.52;0.47;;;;;;;1.93;71.04;101950.50;5093717;27;96630;-34
2022/04/02 05:58:40;;;;;;;0.90;0.40;;;;;;;1.89;71.10;101949.66;5093672;27;96941;-34
2022/04/02 06:01:06;;;;;;;0.55;0.52;;;;;;;1.91;71.73;101955.00;5093134;27;97506;-34
2022/04/02 06:03:32;;;;;;;0.60;0.50;;;;;;;1.86;71.49;101955.03;5093551;27;97859;-34
2022/04/02 06:05:58;;;;;;;0.15;0.15;;;;;;;1.90;71.42;101963.91;5074475;27;96903;-34
2022/04/02 06:08:23;;;;;;;0.82;0.50;;;;;;;1.89;70.90;101965.69;5093358;27;99677;-34
2022/04/02 06:10:49;;;;;;;7.38;0.57;;;;;;;1.92;70.69;101975.47;5092674;27;99660;-34
2022/04/02 06:13:14;;;;;;;0.95;0.52;;;;;;;1.84;70.82;101969.31;5093193;27;97826;-34
2022/04/02 06:15:55;;;;;;;0.22;0.22;;;;;;;1.89;71.52;101983.50;5092770;27;115470;-34
2022/04/02 06:18:21;;;;;;;1.10;0.65;;;;;;;1.87;71.16;101983.50;5093796;27;96876;-34
2022/04/02 06:20:50;;;;;;;3.17;0.95;;;;;;;1.87;71.22;101977.28;5093316;27;97927;-34
2022/04/02 06:23:15;;;;;;;0.93;0.80;;;;;;;1.98;70.80;101986.13;5074529;27;101071;-34
2022/04/02 06:25:40;;;;;;;2.17;0.47;;;;;;;2.06;70.46;101988.72;5092724;27;96465;-34
2022/04/02 06:28:06;;;;;;;5.68;1.00;;;;;;;2.07;70.69;101983.38;5092650;27;114946;-34
2022/04/02 06:30:32;;;;;;;2.70;1.40;;;;;;;2.07;70.19;101975.38;5074411;27;101018;-34
2022/04/02 06:32:57;;;;;;;0.63;0.57;;;;;;;2.19;69.75;101989.50;5092935;27;98828;-34
2022/04/02 06:35:23;;;;;;;0.77;0.77;;;;;;;2.15;70.31;101987.78;5092907;27;96518;-34
2022/04/02 06:37:50;;;;;;;0.70;0.70;;;;;;;2.23;70.15;102000.16;5093332;27;96709;-34
2022/04/02 06:40:16;;;;;;;0.88;0.55;;;;;;;2.27;70.38;101991.22;5092689;27;99285;-34
2022/04/02 06:42:42;;;;;;;1.48;0.40;;;;;;;2.37;69.75;101988.47;5074719;27;101579;-34
2022/04/02 06:45:08;;;;;;;2.17;0.57;;;;;;;2.56;69.15;101995.41;5074433;27;96488;-34
2022/04/02 06:47:34;;;;;;;0.55;0.22;;;;;;;2.80;68.73;101990.72;5093428;27;96764;-34
2022/04/02 06:50:05;;;;;;;0.50;0.50;;;;;;;3.05;68.14;102010.94;5091908;27;99352;-34
2022/04/02 06:52:31;;;;;;;4.57;1.10;;;;;;;3.21;67.96;102011.63;5057125;27;100922;-34
2022/04/02 06:54:56;;;;;;;0.50;0.35;;;;;;;3.36;67.70;102010.53;5074130;27;96741;-34
2022/04/02 06:57:23;;;;;;;0.70;0.52;;;;;;;3.49;67.52;102014.84;5092765;27;96816;-34
2022/04/02 06:59:49;;;;;;;2.10;1.25;;;;;;;3.60;67.01;102004.88;5073893;27;101068;-34
2022/04/02 07:02:19;;;;;;;1.88;0.75;;;;;;;3.75;66.62;101998.41;5074154;27;100985;-34
2022/04/02 07:04:45;;;;;;;1.48;0.75;;;;;;;4.04;66.48;102014.03;5073856;27;96837;-34
2022/04/02 07:07:10;;;;;;;5.90;0.98;;;;;;;4.29;65.27;102021.69;5093600;27;96677;-34
2022/04/02 07:09:36;;;;;;;0.93;0.68;;;;;;;4.40;65.63;102024.19;5091500;27;126773;-34
2022/04/02 07:12:01;;;;;;;3.63;0.63;;;;;;;4.60;65.20;102021.16;5092185;27;99130;-34
2022/04/02 07:14:28;;;;;;;0.43;0.43;;;;;;;4.68;64.19;102022.78;5091993;27;96524;-34
2022/04/02 07:16:53;;;;;;;1.65;0.73;;;;;;;4.80;64.48;102028.84;5074105;27;96790;-34
2022/04/02 07:19:22;;;;;;;1.58;0.82;;;;;;;4.92;63.78;102022.38;5094768;27;98047;-34
2022/04/02 07:21:49;;;;;;;1.05;0.70;;;;;;;4.93;64.07;102008.03;5077255;27;101035;-34
2022/04/02 07:24:16;;;;;;;0.50;0.40;;;;;;;5.07;63.95;102017.56;5077482;27;96744;-34
2022/04/02 07:26:45;;;;;;;0.90;0.60;;;;;;;5.32;63.07;102026.03;5077389;27;96863;-34
2022/04/02 07:29:11;;;;;;;0.93;0.52;;;;;;;5.51;62.27;102033.72;5095722;27;99311;-34
2022/04/02 07:31:37;;;;;;;0.65;0.52;;;;;;;5.67;61.62;102045.91;5077424;27;101001;-34
2022/04/02 07:34:02;;;;;;;0.57;0.40;;;;;;;5.67;61.15;102045.91;5095876;27;96616;-34
2022/04/02 07:37:01;;;;;;;1.75;0.85;;;;;;;5.72;60.38;102038.63;5095394;27;96758;-35
2022/04/02 07:39:34;;;;;;;1.45;0.77;;;;;;;5.82;61.12;102046.47;5076290;27;100892;-34
2022/04/02 07:42:19;;;;;;;1.02;0.75;;;;;;;5.82;58.74;102047.34;5095561;27;98903;-34
2022/04/02 07:45:04;;;;;;;2.05;1.00;;;;;;;5.91;60.56;102060.59;5076940;27;98438;-34
2022/04/02 07:47:33;;;;;;;1.02;0.75;;;;;;;6.05;59.56;102062.09;5095676;27;97089;-34
2022/04/02 07:50:07;;;;;;;1.13;0.65;;;;;;;6.17;59.67;102051.03;5095357;27;97940;-35
2022/04/02 07:52:33;;;;;;;1.35;0.60;;;;;;;6.20;58.52;102053.69;5076960;27;100821;-34
2022/04/02 07:55:01;;;;;;;2.13;1.02;;;;;;;6.29;58.47;102056.16;5076467;27;96595;-35
2022/04/02 07:57:34;;;;;;;0.68;0.40;;;;;;;6.32;58.83;102050.69;5076893;27;96850;-34
2022/04/02 08:00:00;;;;;;;1.00;0.50;;;;;;;6.42;57.56;102050.47;5076168;27;100896;-34
2022/04/02 08:02:38;;;;;;;0.20;0.20;;;;;;;6.58;58.20;102063.50;5095158;27;99152;-34
2022/04/02 08:05:10;;;;;;;1.63;1.02;;;;;;;6.63;57.16;102059.81;5094639;27;96902;-34
2022/04/02 08:07:37;;;;;;;1.02;0.70;;;;;;;6.46;56.23;102065.59;5095560;27;96733;-34
2022/04/02 08:10:06;;;;;;;5.18;0.68;;;;;;;6.60;56.83;102079.59;5076176;27;100739;-34
2022/04/02 08:12:34;;;;;;;1.08;0.68;;;;;;;6.68;57.31;102064.16;5095279;27;97984;-34
2022/04/02 08:15:02;;;;;;;1.95;0.70;;;;;;;6.68;55.78;102064.16;5095061;27;96459;-34
2022/04/02 08:17:29;;;;;;;0.57;0.45;;;;;;;6.70;55.80;102061.44;5075548;27;96898;-34
2022/04/02 08:19:57;;;;;;;1.52;0.60;;;;;;;6.87;55.33;102069.06;5094703;27;99046;-34
2022/04/02 08:22:22;;;;;;;0.60;0.43;;;;;;;6.98;56.13;102062.47;5059600;27;100770;-35
2022/04/02 08:24:47;;;;;;;2.00;0.75;;;;;;;7.03;54.96;102065.00;5094298;27;119324;-34
2022/04/02 08:27:25;;;;;;;0.10;0.10;;;;;;;7.17;55.10;102076.28;5095233;27;96721;-34
2022/04/02 08:30:02;;;;;;;3.92;1.05;;;;;;;7.01;53.60;102073.16;5093404;27;118512;-34
2022/04/02 08:32:55;;;;;;;0.35;0.30;;;;;;;6.89;54.23;102081.56;5076104;27;101295;-34
2022/04/02 08:36:01;;;;;;;5.05;0.68;;;;;;;6.97;54.58;102086.75;5095213;27;96649;-34
2022/04/02 08:38:37;;;;;;;0.30;0.30;;;;;;;6.88;53.33;102071.69;5075668;27;96799;-34
2022/04/02 08:41:23;;;;;;;0.60;0.45;;;;;;;6.65;51.07;102095.63;5076001;27;101674;-35
2022/04/02 08:44:13;;;;;;;2.13;0.60;;;;;;;6.59;52.26;102091.31;5076007;27;100739;-34
2022/04/02 08:47:23;;;;;;;0.63;0.40;;;;;;;6.60;51.31;102095.75;5076160;27;96634;-34
2022/04/02 08:49:55;;;;;;;1.10;0.47;;;;;;;6.55;52.49;102100.38;5079261;27;98136;-34
2022/04/02 08:52:28;;;;;;;0.60;0.40;;;;;;;6.37;50.86;102097.22;5094396;27;98962;-34
2022/04/02 08:55:07;;;;;;;0.95;0.57;;;;;;;6.24;52.96;102105.59;5075997;27;101233;-34
2022/04/02 08:57:40;;;;;;;0.73;0.35;;;;;;;6.14;53.30;102108.50;5075306;27;97069;-34
2022/04/02 09:00:08;;;;;;;0.65;0.57;;;;;;;6.10;52.71;102104.13;5075844;27;96775;-34
2022/04/02 09:02:54;;;;;;;0.73;0.52;;;;;;;6.19;52.65;102112.91;5094371;27;97484;-34
2022/04/02 09:05:38;;;;;;;0.75;0.38;;;;;;;6.23;51.90;102119.97;5094138;27;97847;-34
2022/04/02 09:08:37;;;;;;;0.10;0.10;;;;;;;6.26;51.15;102106.44;5094165;27;96572;-35
2022/04/02 09:11:31;;;;;;;1.05;0.40;;;;;;;6.16;52.10;102108.47;5093922;27;96700;-34
2022/04/02 09:14:03;;;;;;;0.10;0.10;;;;;;;6.04;49.69;102119.50;5075568;27;100449;-34
2022/04/02 09:16:31;;;;;;;1.77;0.80;;;;;;;6.07;52.24;102123.00;5094332;27;97037;-34
2022/04/02 09:19:09;;;;;;;1.02;0.38;;;;;;;6.25;50.81;102120.84;5094275;27;96622;-34
2022/04/02 09:22:01;;;;;;;0.90;0.13;;;;;;;6.53;51.02;102118.34;5075734;27;96808;-34
2022/04/02 09:24:41;;;;;;;0.22;0.15;;;;;;;6.73;49.57;102121.44;5074991;27;100843;-34
2022/04/02 09:27:12;;;;;;;1.55;0.17;;;;;;;6.86;49.37;102121.13;5093117;27;116009;-34
2022/04/02 09:29:57;;;;;;;1.98;0.50;;;;;;;6.62;48.39;102104.69;5075507;27;96660;-34
2022/04/02 09:32:57;;;;;;;0.45;0.32;;;;;;;6.81;47.26;102114.06;5075365;27;96624;-34
2022/04/02 09:36:16;;;;;;;1.35;0.65;;;;;;;6.76;47.25;102115.09;5093537;27;99201;-34
2022/04/02 09:39:02;;;;;;;0.43;0.30;;;;;;;6.97;48.76;102127.13;5093856;27;99363;-34
2022/04/02 09:41:51;;;;;;;3.17;0.40;;;;;;;7.36;48.33;102116.22;5074988;27;96710;-35
2022/04/02 09:44:35;;;;;;;0.08;0.08;;;;;;;7.59;47.29;102107.47;5093254;27;119498;-34
2022/04/02 09:47:04;;;;;;;0.85;0.47;;;;;;;8.04;48.17;102109.75;5074999;27;100919;-34
2022/04/02 09:50:06;;;;;;;1.42;0.85;;;;;;;8.35;44.57;102109.66;5074745;27;100753;-34
2022/04/02 09:52:32;;;;;;;1.35;0.80;;;;;;;8.71;45.29;102114.81;5093208;27;96656;-34
2022/04/02 09:55:00;;;;;;;0.40;0.40;;;;;;;8.90;45.72;102113.25;5093556;27;96836;-34
2022/04/02 09:57:45;;;;;;;0.63;0.50;;;;;;;8.92;42.72;102113.22;5093365;27;97991;-34
2022/04/02 10:00:16;;;;;;;0.15;0.13;;;;;;;8.60;45.69;102117.88;5074951;27;101001;-35
2022/04/02 10:03:35;;;;;;;0.93;0.73;;;;;;;9.12;44.22;102112.53;5093609;27;96432;-34
2022/04/02 10:06:15;;;;;;;4.82;0.82;;;;;;;9.04;43.44;102107.38;4990200;28;97055;-34
2022/04/02 10:09:02;;;;;;;0.75;0.50;;;;;;;8.58;45.21;102103.56;5093339;27;97419;-35
2022/04/02 10:11:29;;;;;;;1.58;0.68;;;;;;;8.10;46.38;102123.03;5074772;27;100735;-34
2022/04/02 10:14:00;;;;;;;1.27;0.47;;;;;;;7.55;45.57;102121.97;5093573;27;96726;-34
2022/04/02 10:16:27;;;;;;;1.10;0.55;;;;;;;7.17;46.26;102130.19;5074813;27;96977;-34
2022/04/02 10:18:54;;;;;;;1.25;0.73;;;;;;;6.93;46.69;102128.13;5074000;27;100959;-34
2022/04/02 10:21:21;;;;;;;2.08;0.30;;;;;;;6.69;45.06;102138.59;5074328;27;101051;-34
2022/04/02 10:24:21;;;;;;;0.80;0.60;;;;;;;6.62;47.43;102136.09;5074751;27;96524;-34
2022/04/02 10:26:53;;;;;;;2.08;0.55;;;;;;;6.44;48.56;102119.47;5068834;27;96965;-34
2022/04/02 10:29:49;;;;;;;1.23;0.80;;;;;;;6.47;47.92;102122.09;5074446;27;101011;-35
2022/04/02 10:32:31;;;;;;;2.33;0.75;;;;;;;6.49;47.60;102125.63;5093303;27;97826;-34
2022/04/02 10:35:03;;;;;;;0.75;0.63;;;;;;;7.16;47.89;102125.72;5074653;27;96731;-34
2022/04/02 10:37:32;;;;;;;;;;;;;;;7.21;46.29;102121.09;5093813;27;96641;-34
2022/04/02 10:40:06;;;;;;;1.50;0.70;;;;;;;7.03;47.00;102129.66;5074311;27;100884;-35
2022/04/02 10:42:55;;;;;;;4.40;0.38;;;;;;;6.89;47.27;102121.06;5074237;27;100749;-34
2022/04/02 10:45:22;;;;;;;0.50;0.30;;;;;;;6.78;46.65;102116.84;5092830;27;96513;-34
2022/04/02 10:47:48;;;;;;;0.35;0.30;;;;;;;6.83;47.52;102134.69;5074317;27;97276;-34
2022/04/02 10:50:18;;;;;;;0.13;0.13;;;;;;;6.67;47.91;102124.28;5092266;27;99450;-34
2022/04/02 10:52:47;;;;;;;4.03;0.47;;;;;;;6.53;47.88;102123.75;5074089;27;101696;-34
2022/04/02 10:55:21;;;;;;;0.30;0.30;;;;;;;6.34;48.34;102099.97;5077812;27;96735;-34
2022/04/02 10:57:47;;;;;;;0.47;0.28;;;;;;;6.38;48.17;102120.50;5096638;27;96650;-34
2022/04/02 11:00:13;;;;;;;1.27;0.60;;;;;;;6.46;48.51;102123.03;5096105;27;99394;-34
2022/04/02 11:02:41;;;;;;;0.47;0.38;;;;;;;6.89;48.43;102137.22;5077946;27;101866;-35
2022/04/02 11:05:11;;;;;;;11.13;0.45;;;;;;;7.33;47.50;102122.56;5077731;27;96626;-35
2022/04/02 11:07:40;;;;;;;0.77;0.30;;;;;;;7.68;46.53;102109.03;5096406;27;96796;-34
2022/04/02 11:10:08;;;;;;;0.93;0.55;;;;;;;8.17;45.25;102121.03;5076180;27;101469;-34
2022/04/02 11:12:41;;;;;;;0.93;0.50;;;;;;;8.45;45.06;102112.97;5096059;27;98981;-34
2022/04/02 11:15:12;;;;;;;1.55;0.60;;;;;;;8.85;43.15;102114.38;5096140;27;96557;-34
2022/04/02 11:17:41;;;;;;;0.93;0.63;;;;;;;9.28;43.66;102113.75;5096111;27;96795;-34
2022/04/02 11:20:20;;;;;;;1.88;0.77;;;;;;;9.45;41.65;102121.25;5077358;27;100866;-34
2022/04/02 11:22:51;;;;;;;0.20;0.20;;;;;;;9.04;43.54;102120.91;5077318;27;100814;-34
2022/04/02 11:25:31;;;;;;;0.83;0.60;;;;;;;8.54;43.95;102125.31;5096036;27;107305;-34
2022/04/02 11:28:08;;;;;;;0.93;0.55;;;;;;;8.17;43.71;102137.22;5096120;27;97028;-34
2022/04/02 11:30:35;;;;;;;0.98;0.63;;;;;;;7.80;45.01;102117.66;5077203;27;101311;-34
2022/04/02 11:33:05;;;;;;;0.95;0.68;;;;;;;7.72;45.16;102114.28;5077310;27;100923;-34
2022/04/02 11:35:36;;;;;;;2.50;0.40;;;;;;;7.96;44.99;102112.69;5076824;27;97015;-34
2022/04/02 11:38:27;;;;;;;0.65;0.47;;;;;;;8.30;44.50;102125.13;5077265;27;96730;-34
2022/04/02 11:41:20;;;;;;;1.02;0.63;;;;;;;8.42;44.93;102121.19;5077000;27;98984;-34
2022/04/02 11:43:47;;;;;;;0.50;0.40;;;;;;;8.35;43.97;102112.38;5095800;27;97818;-34
2022/04/02 11:46:16;;;;;;;0.32;0.22;;;;;;;8.28;44.27;102118.88;5095823;27;96474;-34